createdAt,value
2018-09-10T00:00:23.683Z,7.10
2018-09-10T00:02:51.500Z,3.37
2018-09-10T00:05:19.326Z,5.50
2018-09-10T00:07:47.136Z,3.47
2018-09-10T00:10:14.963Z,5.40
2018-09-10T00:12:43.371Z,5.93
2018-09-10T00:15:11.203Z,5.07
2018-09-10T00:17:39.044Z,5.27
2018-09-10T00:20:06.932Z,3.23
2018-09-10T00:22:34.781Z,5.00
2018-09-10T00:25:02.619Z,3.10
2018-09-10T00:27:48.806Z,3.97
2018-09-10T00:30:36.627Z,3.30
2018-09-10T00:34:04.710Z,5.90
2018-09-10T00:36:36.901Z,4.10
2018-09-10T00:40:01.802Z,4.03
2018-09-10T00:42:33.408Z,4.33
2018-09-10T00:45:01.434Z,5.10
2018-09-10T00:48:00.484Z,3.70
2018-09-10T00:51:25.759Z,5.80
2018-09-10T00:54:05.135Z,5.73
2018-09-10T00:57:33.224Z,5.13
2018-09-10T01:00:07.647Z,4.13
2018-09-10T01:08:34.738Z,5.13
2018-09-10T01:11:47.956Z,4.63
2018-09-10T01:26:14.258Z,5.57
2018-09-10T01:28:42.246Z,6.37
2018-09-10T01:31:10.071Z,3.90
2018-09-10T01:33:43.198Z,3.60
2018-09-10T01:36:11.002Z,7.23
2018-09-10T01:38:38.816Z,4.43
2018-09-10T01:41:06.798Z,3.90
2018-09-10T01:43:34.629Z,4.93
2018-09-10T01:46:02.528Z,4.63
2018-09-10T01:48:30.402Z,6.93
2018-09-10T01:50:58.223Z,8.43
2018-09-10T01:53:26.044Z,6.27
2018-09-10T01:55:53.897Z,9.00
2018-09-10T01:58:21.856Z,6.20
2018-09-10T02:00:49.688Z,5.53
2018-09-10T02:03:17.576Z,8.67
2018-09-10T02:05:45.392Z,9.23
2018-09-10T02:08:13.216Z,4.67
2018-09-10T02:10:41.040Z,7.77
2018-09-10T02:13:08.857Z,6.10
2018-09-10T02:15:41.960Z,8.70
2018-09-10T02:18:09.789Z,6.93
2018-09-10T02:20:37.621Z,5.87
2018-09-10T02:23:05.451Z,5.47
2018-09-10T02:25:33.287Z,6.43
2018-09-10T02:28:01.102Z,6.60
2018-09-10T02:30:29.101Z,9.20
2018-09-10T02:32:56.938Z,5.63
2018-09-10T02:35:24.756Z,4.43
2018-09-10T02:37:52.703Z,7.53
2018-09-10T02:40:20.564Z,6.30
2018-09-10T02:42:48.395Z,9.17
2018-09-10T02:45:16.258Z,5.53
2018-09-10T02:47:44.239Z,9.70
2018-09-10T02:50:12.252Z,8.33
2018-09-10T02:52:40.080Z,9.07
2018-09-10T02:55:07.957Z,8.17
2018-09-10T02:57:35.811Z,7.20
2018-09-10T03:00:03.687Z,5.67
2018-09-10T03:02:31.663Z,4.83
2018-09-10T03:04:59.506Z,7.03
2018-09-10T03:07:27.326Z,5.97
2018-09-10T03:09:55.144Z,5.10
2018-09-10T03:12:23.100Z,7.37
2018-09-10T03:14:50.907Z,4.87
2018-09-10T03:17:18.751Z,5.90
2018-09-10T03:19:46.572Z,8.17
2018-09-10T03:22:14.392Z,7.80
2018-09-10T03:24:42.207Z,5.30
2018-09-10T03:27:10.091Z,6.80
2018-09-10T03:29:37.921Z,5.63
2018-09-10T03:32:05.783Z,7.37
2018-09-10T03:34:33.815Z,5.77
2018-09-10T03:37:01.644Z,6.27
2018-09-10T03:39:29.469Z,7.33
2018-09-10T03:41:57.308Z,7.40
2018-09-10T03:44:25.128Z,7.07
2018-09-10T03:46:52.999Z,9.90
2018-09-10T03:49:20.826Z,7.57
2018-09-10T03:51:48.653Z,5.50
2018-09-10T03:54:16.483Z,6.43
2018-09-10T03:56:44.321Z,8.67
2018-09-10T03:59:12.152Z,7.33
2018-09-10T04:01:39.974Z,5.77
2018-09-10T04:04:07.816Z,5.83
2018-09-10T04:06:35.795Z,5.70
2018-09-10T04:09:03.875Z,5.83
2018-09-10T04:11:31.729Z,6.27
2018-09-10T04:13:59.552Z,5.97
2018-09-10T04:16:27.392Z,6.73
2018-09-10T04:18:55.402Z,8.27
2018-09-10T04:21:23.238Z,5.53
2018-09-10T04:23:51.056Z,8.03
2018-09-10T04:26:18.887Z,5.73
2018-09-10T04:29:17.205Z,7.17
2018-09-10T04:31:59.497Z,6.83
2018-09-10T04:56:08.989Z,6.43
2018-09-10T05:00:02.096Z,7.63
2018-09-10T05:02:40.548Z,8.73
2018-09-10T05:08:45.058Z,6.30
2018-09-10T05:11:23.336Z,6.50
2018-09-10T05:26:51.080Z,7.73
2018-09-10T05:29:29.495Z,6.90
2018-09-10T05:32:07.794Z,6.23
2018-09-10T05:34:46.295Z,5.67
2018-09-10T05:37:24.671Z,6.23
2018-09-10T05:56:20.663Z,8.57
2018-09-10T06:13:13.659Z,8.33
2018-09-10T06:21:53.738Z,11.27
2018-09-10T06:24:32.269Z,9.60
2018-09-10T06:27:10.738Z,9.10
2018-09-10T06:32:40.544Z,10.07
2018-09-10T06:38:43.102Z,14.77
2018-09-10T06:41:24.935Z,10.20
2018-09-10T06:43:59.091Z,8.43
2018-09-10T06:46:43.255Z,9.47
2018-09-10T06:49:14.471Z,8.73
2018-09-10T06:51:44.474Z,12.40
2018-09-10T06:54:15.410Z,13.30
2018-09-10T06:56:54.732Z,9.77
2018-09-10T06:59:34.538Z,18.87
2018-09-10T07:02:04.942Z,11.00
2018-09-10T07:04:40.417Z,9.90
2018-09-10T07:07:11.488Z,10.20
2018-09-10T07:09:50.656Z,15.50
2018-09-10T07:12:24.501Z,11.13
2018-09-10T07:15:05.072Z,13.30
2018-09-10T07:17:36.340Z,16.63
2018-09-10T07:20:09.908Z,13.90
2018-09-10T07:22:49.719Z,12.43
2018-09-10T07:25:25.244Z,10.60
2018-09-10T07:27:53.147Z,12.93
2018-09-10T07:30:21.204Z,12.43
2018-09-10T07:32:49.152Z,10.07
2018-09-10T07:35:17.101Z,10.03
2018-09-10T07:37:45.038Z,14.10
2018-09-10T07:40:12.953Z,11.63
2018-09-10T07:42:40.894Z,13.23
2018-09-10T07:45:09.342Z,9.90
2018-09-10T07:47:37.279Z,9.50
2018-09-10T07:50:05.218Z,10.70
2018-09-10T07:52:33.156Z,10.90
2018-09-10T07:55:01.072Z,10.63
2018-09-10T07:57:28.969Z,7.20
2018-09-10T07:59:56.955Z,12.17
2018-09-10T08:02:24.923Z,9.00
2018-09-10T08:04:52.764Z,6.73
2018-09-10T08:07:20.619Z,6.17
2018-09-10T08:09:48.470Z,8.13
2018-09-10T08:12:16.317Z,8.07
2018-09-10T08:14:44.175Z,8.40
2018-09-10T08:17:12.063Z,8.53
2018-09-10T08:19:39.912Z,6.73
2018-09-10T08:22:07.747Z,12.53
2018-09-10T08:24:35.579Z,9.80
2018-09-10T08:27:03.548Z,10.40
2018-09-10T08:29:31.512Z,7.30
2018-09-10T08:31:59.372Z,7.17
2018-09-10T08:34:27.215Z,9.53
2018-09-10T08:36:55.051Z,7.33
2018-09-10T08:39:22.885Z,6.50
2018-09-10T08:41:50.776Z,11.57
2018-09-10T08:44:18.774Z,9.47
2018-09-10T08:46:46.592Z,7.70
2018-09-10T08:49:14.465Z,7.53
2018-09-10T08:51:42.299Z,5.33
2018-09-10T08:54:10.321Z,4.67
2018-09-10T08:56:38.090Z,13.83
2018-09-10T08:59:06.066Z,5.73
2018-09-10T09:01:34.088Z,6.47
2018-09-10T09:04:02.102Z,6.53
2018-09-10T09:06:30.989Z,5.30
2018-09-10T09:08:58.959Z,4.43
2018-09-10T09:11:26.955Z,10.63
2018-09-10T09:13:54.972Z,6.33
2018-09-10T09:16:25.358Z,6.83
2018-09-10T09:18:53.382Z,3.33
2018-09-10T09:21:22.432Z,4.70
2018-09-10T09:23:50.351Z,6.03
2018-09-10T09:26:18.332Z,3.40
2018-09-10T09:28:46.244Z,6.67
2018-09-10T09:31:14.143Z,3.27
2018-09-10T09:33:42.105Z,3.03
2018-09-10T09:36:15.317Z,5.83
2018-09-10T09:38:48.172Z,3.37
2018-09-10T09:41:21.195Z,4.83
2018-09-10T09:43:54.368Z,6.07
2018-09-10T09:46:22.293Z,4.90
2018-09-10T09:48:50.207Z,2.53
2018-09-10T09:51:18.205Z,3.33
2018-09-10T09:53:46.132Z,7.63
2018-09-10T09:56:14.102Z,5.10
2018-09-10T09:58:42.078Z,8.80
2018-09-10T10:01:15.028Z,3.80
2018-09-10T10:03:48.113Z,2.10
2018-09-10T10:06:16.039Z,2.73
2018-09-10T10:08:43.935Z,4.90
2018-09-10T10:11:11.956Z,2.40
2018-09-10T10:13:39.852Z,1.83
2018-09-10T10:16:07.822Z,3.07
2018-09-10T10:18:35.738Z,2.37
2018-09-10T10:21:03.669Z,2.73
2018-09-10T10:23:31.602Z,6.70
2018-09-10T10:25:59.565Z,6.23
2018-09-10T10:28:27.554Z,2.50
2018-09-10T10:30:55.461Z,3.57
2018-09-10T10:33:23.360Z,9.07
2018-09-10T10:35:51.291Z,11.87
2018-09-10T10:38:19.180Z,4.17
2018-09-10T10:40:47.108Z,8.37
2018-09-10T10:43:14.994Z,2.60
2018-09-10T10:45:42.912Z,4.03
2018-09-10T10:48:10.836Z,1.77
2018-09-10T10:50:38.769Z,2.60
2018-09-10T10:53:06.700Z,4.73
2018-09-10T10:55:34.632Z,3.37
2018-09-10T10:58:03.128Z,2.00
2018-09-10T11:00:30.979Z,4.43
2018-09-10T11:02:58.809Z,4.00
2018-09-10T11:05:26.780Z,2.13
2018-09-10T11:07:54.635Z,2.30
2018-09-10T11:10:22.496Z,1.60
2018-09-10T11:12:50.449Z,5.87
2018-09-10T11:15:18.535Z,2.37
2018-09-10T11:17:46.380Z,2.77
2018-09-10T11:20:14.218Z,2.30
2018-09-10T11:22:42.044Z,5.17
2018-09-10T11:25:09.883Z,9.27
2018-09-10T11:27:37.748Z,3.63
2018-09-10T11:30:06.223Z,4.33
2018-09-10T11:32:34.170Z,4.27
2018-09-10T11:35:02.073Z,2.53
2018-09-10T11:37:29.887Z,2.47
2018-09-10T11:39:57.861Z,4.17
2018-09-10T11:42:25.697Z,5.00
2018-09-10T11:44:53.532Z,6.63
2018-09-10T11:47:21.832Z,2.67
2018-09-10T11:49:49.679Z,2.17
2018-09-10T11:52:17.537Z,3.60
2018-09-10T11:54:45.394Z,1.83
2018-09-10T11:57:13.273Z,1.73
2018-09-10T11:59:41.105Z,2.87
2018-09-10T12:02:09.212Z,2.80
2018-09-10T12:04:37.502Z,2.73
2018-09-10T12:07:05.739Z,2.03
2018-09-10T12:09:33.572Z,4.20
2018-09-10T12:12:01.408Z,1.60
2018-09-10T12:14:29.243Z,1.73
2018-09-10T12:16:57.100Z,2.30
2018-09-10T12:19:24.970Z,4.37
2018-09-10T12:21:52.860Z,1.43
2018-09-10T12:24:20.716Z,1.40
2018-09-10T12:26:48.579Z,1.90
2018-09-10T12:29:16.441Z,1.80
2018-09-10T12:31:44.302Z,5.37
2018-09-10T12:34:12.200Z,3.10
2018-09-10T12:36:40.016Z,5.10
2018-09-10T12:39:08.624Z,3.47
2018-09-10T12:41:36.462Z,1.40
2018-09-10T12:44:04.579Z,3.80
2018-09-10T12:46:32.450Z,3.27
2018-09-10T12:49:00.312Z,1.80
2018-09-10T12:51:28.135Z,2.33
2018-09-10T12:53:55.979Z,5.53
2018-09-10T12:56:23.825Z,2.63
2018-09-10T12:58:51.719Z,1.33
2018-09-10T13:01:19.573Z,3.33
2018-09-10T13:03:47.429Z,1.50
2018-09-10T13:06:15.354Z,1.60
2018-09-10T13:08:43.218Z,5.30
2018-09-10T13:11:11.060Z,2.23
2018-09-10T13:13:38.959Z,1.53
2018-09-10T13:16:06.890Z,4.07
2018-09-10T13:18:34.728Z,2.33
2018-09-10T13:21:02.556Z,1.77
2018-09-10T13:23:30.491Z,1.47
2018-09-10T13:25:58.324Z,1.90
2018-09-10T13:28:26.160Z,3.80
2018-09-10T13:30:54.111Z,3.63
2018-09-10T13:33:22.002Z,1.87
2018-09-10T13:35:49.844Z,2.17
2018-09-10T13:38:18.083Z,2.10
2018-09-10T13:40:45.916Z,2.30
2018-09-10T13:43:13.840Z,1.87
2018-09-10T13:45:41.954Z,2.57
2018-09-10T13:48:10.049Z,3.20
2018-09-10T13:50:37.879Z,1.60
2018-09-10T13:53:05.737Z,5.63
2018-09-10T13:55:33.592Z,6.23
2018-09-10T13:58:01.443Z,4.20
2018-09-10T14:00:29.291Z,2.17
2018-09-10T14:02:57.111Z,3.67
2018-09-10T14:05:24.973Z,4.17
2018-09-10T14:07:52.818Z,2.23
2018-09-10T14:10:20.690Z,2.33
2018-09-10T14:12:48.536Z,8.77
2018-09-10T14:15:16.412Z,5.13
2018-09-10T14:17:44.251Z,2.30
2018-09-10T14:20:12.084Z,5.40
2018-09-10T14:22:39.915Z,2.00
2018-09-10T14:25:07.763Z,1.63
2018-09-10T14:27:35.667Z,2.77
2018-09-10T14:30:03.726Z,5.00
2018-09-10T14:32:31.567Z,3.50
2018-09-10T14:34:59.450Z,2.23
2018-09-10T14:37:27.431Z,2.63
2018-09-10T14:39:55.266Z,2.00
2018-09-10T14:42:23.184Z,1.60
2018-09-10T14:44:51.003Z,2.73
2018-09-10T14:47:18.923Z,3.43
2018-09-10T14:49:46.784Z,3.40
2018-09-10T14:52:14.675Z,2.30
2018-09-10T14:54:42.736Z,4.30
2018-09-10T14:57:10.685Z,2.70
2018-09-10T14:59:38.541Z,1.67
2018-09-10T15:02:06.371Z,2.13
2018-09-10T15:04:34.430Z,3.80
2018-09-10T15:07:02.330Z,4.70
2018-09-10T15:09:30.207Z,2.93
2018-09-10T15:11:58.113Z,9.27
2018-09-10T15:14:26.238Z,3.87
2018-09-10T15:16:54.086Z,3.10
2018-09-10T15:19:21.939Z,3.60
2018-09-10T15:21:49.917Z,3.87
2018-09-10T15:24:17.792Z,1.83
2018-09-10T15:26:45.837Z,2.17
2018-09-10T15:29:13.676Z,3.57
2018-09-10T15:31:41.534Z,5.47
2018-09-10T15:34:09.386Z,3.87
2018-09-10T15:36:37.259Z,2.07
2018-09-10T15:39:06.328Z,2.13
2018-09-10T15:41:34.164Z,2.13
2018-09-10T15:44:02.030Z,2.57
2018-09-10T15:46:30.004Z,1.90
2018-09-10T15:48:57.944Z,2.80
2018-09-10T15:51:25.831Z,3.23
2018-09-10T15:53:53.654Z,2.27
2018-09-10T15:56:21.498Z,1.67
2018-09-10T15:58:49.389Z,3.67
2018-09-10T16:01:17.222Z,1.90
2018-09-10T16:03:45.055Z,2.57
2018-09-10T16:06:13.131Z,5.90
2018-09-10T16:08:40.959Z,2.93
2018-09-10T16:11:09.019Z,4.80
2018-09-10T16:13:36.903Z,1.97
2018-09-10T16:16:04.776Z,2.27
2018-09-10T16:18:32.654Z,2.70
2018-09-10T16:21:00.483Z,4.40
2018-09-10T16:23:28.295Z,2.67
2018-09-10T16:25:56.121Z,5.10
2018-09-10T16:28:24.015Z,4.40
2018-09-10T16:30:52.166Z,4.20
2018-09-10T16:33:20.317Z,4.00
2018-09-10T16:35:48.139Z,2.37
2018-09-10T16:38:15.988Z,3.27
2018-09-10T16:40:43.829Z,2.63
2018-09-10T16:43:11.809Z,1.83
2018-09-10T16:45:39.818Z,3.90
2018-09-10T16:48:07.829Z,3.37
2018-09-10T16:50:36.250Z,3.07
2018-09-10T16:53:04.193Z,3.07
2018-09-10T16:55:32.335Z,3.57
2018-09-10T16:58:00.183Z,3.30
2018-09-10T17:00:28.018Z,3.23
2018-09-10T17:02:55.839Z,7.50
2018-09-10T17:05:23.661Z,5.03
2018-09-10T17:07:51.488Z,7.87
2018-09-10T17:10:19.350Z,2.70
2018-09-10T17:12:47.215Z,2.20
2018-09-10T17:15:15.188Z,3.37
2018-09-10T17:17:43.099Z,3.20
2018-09-10T17:20:10.934Z,6.50
2018-09-10T17:22:39.350Z,2.13
2018-09-10T17:25:07.203Z,3.27
2018-09-10T17:27:35.097Z,4.07
2018-09-10T17:30:02.959Z,4.57
2018-09-10T17:32:30.807Z,8.10
2018-09-10T17:34:58.644Z,3.97
2018-09-10T17:37:26.534Z,3.33
2018-09-10T17:39:54.554Z,4.63
2018-09-10T17:42:22.769Z,5.43
2018-09-10T17:44:50.656Z,3.67
2018-09-10T17:47:18.713Z,4.30
2018-09-10T17:49:46.653Z,3.43
2018-09-10T17:52:14.738Z,3.73
2018-09-10T17:54:42.827Z,8.03
2018-09-10T17:57:10.783Z,5.37
2018-09-10T17:59:45.446Z,4.60
2018-09-10T18:02:13.633Z,6.10
2018-09-10T18:04:41.568Z,8.47
2018-09-10T18:07:09.434Z,9.27
2018-09-10T18:09:37.283Z,8.40
2018-09-10T18:12:05.132Z,9.70
2018-09-10T18:14:32.971Z,9.27
2018-09-10T18:17:00.846Z,10.67
2018-09-10T18:19:28.867Z,9.47
2018-09-10T18:21:56.712Z,11.10
2018-09-10T18:24:24.560Z,11.13
2018-09-10T18:26:53.008Z,8.37
2018-09-10T18:29:20.899Z,7.53
2018-09-10T18:31:48.767Z,7.97
2018-09-10T18:34:16.748Z,9.27
2018-09-10T18:36:44.741Z,11.50
2018-09-10T18:39:12.595Z,5.87
2018-09-10T18:41:40.454Z,6.63
2018-09-10T18:44:08.659Z,6.80
2018-09-10T18:46:36.535Z,6.40
2018-09-10T18:49:04.514Z,6.63
2018-09-10T18:51:32.365Z,5.13
2018-09-10T18:54:00.224Z,8.20
2018-09-10T18:56:28.074Z,6.30
2018-09-10T18:58:56.314Z,7.17
2018-09-10T19:01:24.325Z,5.33
2018-09-10T19:03:52.091Z,6.40
2018-09-10T19:06:20.140Z,5.63
2018-09-10T19:08:48.067Z,12.80
2018-09-10T19:11:15.946Z,7.87
2018-09-10T19:13:43.857Z,4.47
2018-09-10T19:16:11.722Z,6.27
2018-09-10T19:18:41.064Z,6.03
2018-09-10T19:21:09.325Z,3.93
2018-09-10T19:23:37.860Z,4.73
2018-09-10T19:26:06.263Z,8.10
2018-09-10T19:28:34.131Z,5.40
2018-09-10T19:31:02.363Z,3.60
2018-09-10T19:33:30.298Z,5.13
2018-09-10T19:35:58.153Z,5.73
2018-09-10T19:38:25.995Z,6.03
2018-09-10T19:40:54.107Z,5.90
2018-09-10T19:43:21.939Z,5.17
2018-09-10T19:45:50.163Z,3.97
2018-09-10T19:48:18.000Z,3.37
2018-09-10T19:50:45.871Z,6.93
2018-09-10T19:53:13.699Z,5.93
2018-09-10T19:55:42.087Z,5.03
2018-09-10T19:58:09.911Z,4.27
2018-09-10T20:00:37.763Z,7.77
2018-09-10T20:03:05.903Z,11.50
2018-09-10T20:05:33.770Z,5.67
2018-09-10T20:08:01.659Z,5.97
2018-09-10T20:10:29.555Z,3.07
2018-09-10T20:12:57.393Z,4.20
2018-09-10T20:15:25.259Z,9.57
2018-09-10T20:17:53.259Z,19.87
2018-09-10T20:20:21.095Z,7.23
2018-09-10T20:22:48.959Z,4.87
2018-09-10T20:25:16.890Z,3.27
2018-09-10T20:27:44.786Z,5.50
2018-09-10T20:30:12.714Z,4.17
2018-09-10T20:32:40.612Z,6.87
2018-09-10T20:35:08.943Z,6.20
2018-09-10T20:37:36.788Z,3.93
2018-09-10T20:40:04.690Z,3.57
2018-09-10T20:42:32.625Z,8.60
2018-09-10T20:45:00.667Z,4.37
2018-09-10T20:47:28.510Z,5.73
2018-09-10T20:49:56.455Z,3.53
2018-09-10T20:52:24.291Z,4.23
2018-09-10T20:54:52.109Z,3.93
2018-09-10T20:57:19.950Z,4.47
2018-09-10T20:59:47.772Z,4.63
2018-09-10T21:02:15.614Z,5.47
2018-09-10T21:04:43.459Z,5.07
2018-09-10T21:07:11.359Z,4.97
2018-09-10T21:09:39.202Z,6.20
2018-09-10T21:12:07.076Z,4.60
2018-09-10T21:14:34.908Z,4.93
2018-09-10T21:17:02.768Z,4.53
2018-09-10T21:19:30.607Z,3.10
2018-09-10T21:21:58.576Z,2.77
2018-09-10T21:24:26.404Z,3.67
2018-09-10T21:26:54.256Z,3.60
2018-09-10T21:29:22.076Z,4.93
2018-09-10T21:31:49.906Z,3.47
2018-09-10T21:34:17.830Z,2.83
2018-09-10T21:36:45.681Z,3.00
2018-09-10T21:39:13.560Z,3.30
2018-09-10T21:41:41.402Z,2.67
2018-09-10T21:44:10.048Z,3.10
2018-09-10T21:46:37.917Z,4.30
2018-09-10T21:49:05.741Z,7.07
2018-09-10T21:51:33.588Z,4.23
2018-09-10T21:54:01.420Z,4.80
2018-09-10T21:56:29.248Z,9.63
2018-09-10T21:58:57.087Z,7.90
2018-09-10T22:01:24.926Z,5.23
2018-09-10T22:03:52.792Z,6.30
2018-09-10T22:06:20.657Z,4.60
2018-09-10T22:08:48.487Z,3.40
2018-09-10T22:11:16.489Z,4.07
2018-09-10T22:13:44.412Z,9.20
2018-09-10T22:16:12.263Z,4.47
2018-09-10T22:18:40.083Z,10.43
2018-09-10T22:21:08.031Z,5.13
2018-09-10T22:23:35.873Z,6.27
2018-09-10T22:26:03.712Z,6.00
2018-09-10T22:28:31.551Z,8.10
2018-09-10T22:30:59.372Z,4.30
2018-09-10T22:33:27.216Z,4.97
2018-09-10T22:35:55.033Z,7.83
2018-09-10T22:38:22.918Z,20.67
2018-09-10T22:40:50.756Z,16.63
2018-09-10T22:43:18.657Z,11.23
2018-09-10T22:45:46.527Z,6.40
2018-09-10T22:48:14.369Z,4.07
2018-09-10T22:50:42.208Z,3.50
2018-09-10T22:53:10.039Z,6.43
2018-09-10T22:55:37.871Z,5.40
2018-09-10T22:58:05.707Z,4.77
2018-09-10T23:00:33.531Z,4.03
2018-09-10T23:03:01.360Z,5.63
2018-09-10T23:05:29.167Z,3.10
2018-09-10T23:07:56.991Z,4.27
2018-09-10T23:10:24.840Z,5.10
2018-09-10T23:12:52.707Z,6.00
2018-09-10T23:15:20.835Z,4.73
2018-09-10T23:17:48.875Z,4.07
2018-09-10T23:20:16.730Z,4.30
2018-09-10T23:22:44.580Z,4.53
2018-09-10T23:25:12.407Z,4.93
2018-09-10T23:27:40.222Z,3.67
2018-09-10T23:30:08.142Z,3.20
2018-09-10T23:32:35.983Z,5.53
2018-09-10T23:35:03.862Z,3.57
2018-09-10T23:37:31.697Z,3.07
2018-09-10T23:39:59.547Z,6.03
2018-09-10T23:42:27.577Z,3.13
2018-09-10T23:44:55.413Z,3.03
2018-09-10T23:47:23.759Z,4.10
2018-09-10T23:49:51.593Z,6.57
2018-09-10T23:52:19.414Z,3.53
2018-09-10T23:54:47.249Z,3.13
2018-09-10T23:57:15.071Z,5.80
2018-09-10T23:59:42.907Z,4.80
